sensor_id;sensor_type;location;lat;lon;timestamp;P1;durP1;ratioP1;P2;durP2;ratioP2
74789;SDS011;63318;52.406;13.416;2023-07-20T00:02:21;6.20;;;3.60;;
74789;SDS011;63318;52.406;13.416;2023-07-20T00:04:49;5.30;;;3.30;;
74789;SDS011;63318;52.406;13.416;2023-07-20T00:07:17;6.40;;;3.40;;
74789;SDS011;63318;52.406;13.416;2023-07-20T00:09:46;8.60;;;3.10;;
74789;SDS011;63318;52.406;13.416;2023-07-20T00:12:14;5.10;;;3.30;;
74789;SDS011;63318;52.406;13.416;2023-07-20T00:14:42;5.00;;;3.20;;
74789;SDS011;63318;52.406;13.416;2023-07-20T00:17:10;5.50;;;3.00;;
74789;SDS011;63318;52.406;13.416;2023-07-20T00:19:38;6.30;;;3.80;;
74789;SDS011;63318;52.406;13.416;2023-07-20T00:22:07;5.50;;;3.70;;
74789;SDS011;63318;52.406;13.416;2023-07-20T00:24:35;5.50;;;3.60;;
74789;SDS011;63318;52.406;13.416;2023-07-20T00:27:04;7.70;;;3.70;;
74789;SDS011;63318;52.406;13.416;2023-07-20T00:29:34;5.40;;;3.80;;
74789;SDS011;63318;52.406;13.416;2023-07-20T00:32:02;5.00;;;3.70;;
74789;SDS011;63318;52.406;13.416;2023-07-20T00:34:31;4.70;;;3.40;;
74789;SDS011;63318;52.406;13.416;2023-07-20T00:37:01;7.30;;;3.90;;
74789;SDS011;63318;52.406;13.416;2023-07-20T00:39:29;10.20;;;4.60;;
74789;SDS011;63318;52.406;13.416;2023-07-20T00:41:58;7.20;;;4.50;;
74789;SDS011;63318;52.406;13.416;2023-07-20T00:44:26;5.60;;;4.30;;
74789;SDS011;63318;52.406;13.416;2023-07-20T00:46:54;8.40;;;5.80;;
74789;SDS011;63318;52.406;13.416;2023-07-20T00:49:23;10.30;;;6.00;;
74789;SDS011;63318;52.406;13.416;2023-07-20T00:51:51;6.60;;;5.60;;
74789;SDS011;63318;52.406;13.416;2023-07-20T00:54:20;8.60;;;6.00;;
74789;SDS011;63318;52.406;13.416;2023-07-20T00:56:48;8.90;;;5.80;;
74789;SDS011;63318;52.406;13.416;2023-07-20T00:59:16;9.40;;;6.30;;
74789;SDS011;63318;52.406;13.416;2023-07-20T01:01:45;7.50;;;5.30;;
74789;SDS011;63318;52.406;13.416;2023-07-20T01:04:13;10.10;;;5.30;;
74789;SDS011;63318;52.406;13.416;2023-07-20T01:06:45;8.00;;;5.70;;
74789;SDS011;63318;52.406;13.416;2023-07-20T01:09:18;7.30;;;5.00;;
74789;SDS011;63318;52.406;13.416;2023-07-20T01:11:57;7.90;;;5.00;;
74789;SDS011;63318;52.406;13.416;2023-07-20T01:14:31;7.20;;;5.10;;
74789;SDS011;63318;52.406;13.416;2023-07-20T01:17:01;7.10;;;5.00;;
74789;SDS011;63318;52.406;13.416;2023-07-20T01:19:29;8.40;;;5.40;;
74789;SDS011;63318;52.406;13.416;2023-07-20T01:21:59;8.30;;;5.00;;
74789;SDS011;63318;52.406;13.416;2023-07-20T01:24:35;6.70;;;5.10;;
74789;SDS011;63318;52.406;13.416;2023-07-20T01:27:25;7.20;;;5.20;;
74789;SDS011;63318;52.406;13.416;2023-07-20T01:30:33;8.70;;;5.30;;
74789;SDS011;63318;52.406;13.416;2023-07-20T01:33:13;7.70;;;5.20;;
74789;SDS011;63318;52.406;13.416;2023-07-20T01:35:44;8.20;;;5.40;;
74789;SDS011;63318;52.406;13.416;2023-07-20T01:38:17;7.90;;;6.10;;
74789;SDS011;63318;52.406;13.416;2023-07-20T01:40:47;8.00;;;5.60;;
74789;SDS011;63318;52.406;13.416;2023-07-20T01:43:17;8.20;;;5.50;;
74789;SDS011;63318;52.406;13.416;2023-07-20T01:45:45;7.20;;;5.90;;
74789;SDS011;63318;52.406;13.416;2023-07-20T01:48:13;7.60;;;5.80;;
74789;SDS011;63318;52.406;13.416;2023-07-20T01:50:42;9.40;;;5.40;;
74789;SDS011;63318;52.406;13.416;2023-07-20T01:53:10;8.10;;;5.40;;
74789;SDS011;63318;52.406;13.416;2023-07-20T01:55:38;7.00;;;5.50;;
74789;SDS011;63318;52.406;13.416;2023-07-20T01:58:06;7.90;;;5.50;;
74789;SDS011;63318;52.406;13.416;2023-07-20T02:00:36;7.60;;;5.70;;
74789;SDS011;63318;52.406;13.416;2023-07-20T02:03:04;6.60;;;5.60;;
74789;SDS011;63318;52.406;13.416;2023-07-20T02:05:32;8.40;;;5.60;;
74789;SDS011;63318;52.406;13.416;2023-07-20T02:08:01;8.10;;;5.70;;
74789;SDS011;63318;52.406;13.416;2023-07-20T02:10:29;7.40;;;5.40;;
74789;SDS011;63318;52.406;13.416;2023-07-20T02:12:57;7.40;;;5.50;;
74789;SDS011;63318;52.406;13.416;2023-07-20T02:15:25;9.10;;;5.50;;
74789;SDS011;63318;52.406;13.416;2023-07-20T02:17:56;6.70;;;5.00;;
74789;SDS011;63318;52.406;13.416;2023-07-20T02:20:24;7.40;;;5.10;;
74789;SDS011;63318;52.406;13.416;2023-07-20T02:22:53;8.30;;;4.90;;
74789;SDS011;63318;52.406;13.416;2023-07-20T02:25:21;7.10;;;4.60;;
74789;SDS011;63318;52.406;13.416;2023-07-20T02:27:49;6.90;;;5.10;;
74789;SDS011;63318;52.406;13.416;2023-07-20T02:30:18;7.50;;;5.20;;
74789;SDS011;63318;52.406;13.416;2023-07-20T02:32:47;7.20;;;5.30;;
74789;SDS011;63318;52.406;13.416;2023-07-20T02:35:15;9.40;;;4.70;;
74789;SDS011;63318;52.406;13.416;2023-07-20T02:37:43;8.00;;;5.00;;
74789;SDS011;63318;52.406;13.416;2023-07-20T02:40:12;7.40;;;4.70;;
74789;SDS011;63318;52.406;13.416;2023-07-20T02:42:40;7.00;;;5.10;;
74789;SDS011;63318;52.406;13.416;2023-07-20T02:45:09;6.30;;;4.90;;
74789;SDS011;63318;52.406;13.416;2023-07-20T02:47:37;8.70;;;5.10;;
74789;SDS011;63318;52.406;13.416;2023-07-20T02:50:07;6.00;;;5.00;;
74789;SDS011;63318;52.406;13.416;2023-07-20T02:52:36;7.40;;;4.80;;
74789;SDS011;63318;52.406;13.416;2023-07-20T02:55:04;6.90;;;4.90;;
74789;SDS011;63318;52.406;13.416;2023-07-20T02:57:33;7.00;;;5.20;;
74789;SDS011;63318;52.406;13.416;2023-07-20T03:00:02;9.10;;;5.90;;
74789;SDS011;63318;52.406;13.416;2023-07-20T03:02:31;8.00;;;6.20;;
74789;SDS011;63318;52.406;13.416;2023-07-20T03:05:00;6.90;;;5.30;;
74789;SDS011;63318;52.406;13.416;2023-07-20T03:07:29;8.20;;;6.30;;
74789;SDS011;63318;52.406;13.416;2023-07-20T03:09:57;6.60;;;5.50;;
74789;SDS011;63318;52.406;13.416;2023-07-20T03:12:25;8.10;;;6.30;;
74789;SDS011;63318;52.406;13.416;2023-07-20T03:14:53;10.90;;;7.00;;
74789;SDS011;63318;52.406;13.416;2023-07-20T03:17:21;9.90;;;7.80;;
74789;SDS011;63318;52.406;13.416;2023-07-20T03:19:50;12.30;;;8.30;;
74789;SDS011;63318;52.406;13.416;2023-07-20T03:22:18;10.20;;;8.30;;
74789;SDS011;63318;52.406;13.416;2023-07-20T03:24:46;12.20;;;9.30;;
74789;SDS011;63318;52.406;13.416;2023-07-20T03:27:15;11.10;;;8.90;;
74789;SDS011;63318;52.406;13.416;2023-07-20T03:29:43;10.20;;;8.70;;
74789;SDS011;63318;52.406;13.416;2023-07-20T03:32:12;13.00;;;9.70;;
74789;SDS011;63318;52.406;13.416;2023-07-20T03:34:40;11.80;;;9.20;;
74789;SDS011;63318;52.406;13.416;2023-07-20T03:37:09;12.20;;;10.80;;
74789;SDS011;63318;52.406;13.416;2023-07-20T03:39:37;12.90;;;9.90;;
74789;SDS011;63318;52.406;13.416;2023-07-20T03:42:07;13.10;;;9.40;;
74789;SDS011;63318;52.406;13.416;2023-07-20T03:44:36;13.00;;;10.70;;
74789;SDS011;63318;52.406;13.416;2023-07-20T03:47:05;11.80;;;10.00;;
74789;SDS011;63318;52.406;13.416;2023-07-20T03:49:34;13.10;;;11.10;;
74789;SDS011;63318;52.406;13.416;2023-07-20T03:52:02;10.90;;;9.60;;
74789;SDS011;63318;52.406;13.416;2023-07-20T03:54:31;10.90;;;9.40;;
74789;SDS011;63318;52.406;13.416;2023-07-20T03:56:59;12.00;;;9.10;;
74789;SDS011;63318;52.406;13.416;2023-07-20T03:59:27;14.20;;;9.60;;
74789;SDS011;63318;52.406;13.416;2023-07-20T04:01:56;10.90;;;9.30;;
74789;SDS011;63318;52.406;13.416;2023-07-20T04:04:24;11.60;;;9.40;;
74789;SDS011;63318;52.406;13.416;2023-07-20T04:06:52;11.10;;;8.30;;
74789;SDS011;63318;52.406;13.416;2023-07-20T04:09:21;12.00;;;9.50;;
74789;SDS011;63318;52.406;13.416;2023-07-20T04:11:49;11.50;;;9.20;;
74789;SDS011;63318;52.406;13.416;2023-07-20T04:14:18;11.20;;;9.20;;
74789;SDS011;63318;52.406;13.416;2023-07-20T04:16:47;14.60;;;9.70;;
74789;SDS011;63318;52.406;13.416;2023-07-20T04:19:15;11.50;;;9.30;;
74789;SDS011;63318;52.406;13.416;2023-07-20T04:21:43;11.90;;;10.50;;
74789;SDS011;63318;52.406;13.416;2023-07-20T04:24:12;11.80;;;9.20;;
74789;SDS011;63318;52.406;13.416;2023-07-20T04:26:40;12.20;;;9.30;;
74789;SDS011;63318;52.406;13.416;2023-07-20T04:29:08;12.50;;;9.70;;
74789;SDS011;63318;52.406;13.416;2023-07-20T04:31:37;11.60;;;9.30;;
74789;SDS011;63318;52.406;13.416;2023-07-20T04:34:05;11.40;;;9.00;;
74789;SDS011;63318;52.406;13.416;2023-07-20T04:36:34;12.20;;;9.40;;
74789;SDS011;63318;52.406;13.416;2023-07-20T04:39:02;12.20;;;9.20;;
74789;SDS011;63318;52.406;13.416;2023-07-20T04:41:31;10.80;;;8.90;;
74789;SDS011;63318;52.406;13.416;2023-07-20T04:44:00;11.70;;;8.70;;
74789;SDS011;63318;52.406;13.416;2023-07-20T04:46:29;11.90;;;8.30;;
74789;SDS011;63318;52.406;13.416;2023-07-20T04:48:57;10.90;;;8.30;;
74789;SDS011;63318;52.406;13.416;2023-07-20T04:51:26;13.60;;;8.30;;
74789;SDS011;63318;52.406;13.416;2023-07-20T04:53:54;10.80;;;8.30;;
74789;SDS011;63318;52.406;13.416;2023-07-20T04:56:22;9.80;;;8.10;;
74789;SDS011;63318;52.406;13.416;2023-07-20T04:58:50;9.60;;;7.70;;
74789;SDS011;63318;52.406;13.416;2023-07-20T05:01:19;10.60;;;8.30;;
74789;SDS011;63318;52.406;13.416;2023-07-20T05:03:47;11.10;;;8.30;;
74789;SDS011;63318;52.406;13.416;2023-07-20T05:06:15;8.50;;;6.90;;
74789;SDS011;63318;52.406;13.416;2023-07-20T05:08:43;11.10;;;8.30;;
74789;SDS011;63318;52.406;13.416;2023-07-20T05:11:12;11.60;;;8.60;;
74789;SDS011;63318;52.406;13.416;2023-07-20T05:13:40;10.10;;;8.00;;
74789;SDS011;63318;52.406;13.416;2023-07-20T05:16:08;12.30;;;8.50;;
74789;SDS011;63318;52.406;13.416;2023-07-20T05:18:36;11.60;;;8.90;;
74789;SDS011;63318;52.406;13.416;2023-07-20T05:21:05;11.70;;;8.30;;
74789;SDS011;63318;52.406;13.416;2023-07-20T05:23:33;12.50;;;7.80;;
74789;SDS011;63318;52.406;13.416;2023-07-20T05:26:01;9.80;;;6.90;;
74789;SDS011;63318;52.406;13.416;2023-07-20T05:28:29;10.90;;;8.00;;
74789;SDS011;63318;52.406;13.416;2023-07-20T05:30:58;9.60;;;7.50;;
74789;SDS011;63318;52.406;13.416;2023-07-20T05:33:30;9.40;;;6.90;;
74789;SDS011;63318;52.406;13.416;2023-07-20T05:36:00;8.50;;;6.00;;
74789;SDS011;63318;52.406;13.416;2023-07-20T05:38:29;12.30;;;6.50;;
74789;SDS011;63318;52.406;13.416;2023-07-20T05:41:00;8.50;;;5.50;;
74789;SDS011;63318;52.406;13.416;2023-07-20T05:43:28;9.20;;;5.20;;
74789;SDS011;63318;52.406;13.416;2023-07-20T05:45:57;8.40;;;5.30;;
74789;SDS011;63318;52.406;13.416;2023-07-20T05:48:25;9.10;;;5.70;;
74789;SDS011;63318;52.406;13.416;2023-07-20T05:50:54;14.10;;;5.70;;
74789;SDS011;63318;52.406;13.416;2023-07-20T05:53:22;8.20;;;5.80;;
74789;SDS011;63318;52.406;13.416;2023-07-20T05:55:53;6.90;;;5.00;;
74789;SDS011;63318;52.406;13.416;2023-07-20T05:58:22;7.20;;;5.60;;
74789;SDS011;63318;52.406;13.416;2023-07-20T06:00:50;8.20;;;5.70;;
74789;SDS011;63318;52.406;13.416;2023-07-20T06:03:19;6.60;;;5.40;;
74789;SDS011;63318;52.406;13.416;2023-07-20T06:05:47;6.30;;;4.20;;
74789;SDS011;63318;52.406;13.416;2023-07-20T06:08:16;7.10;;;4.30;;
74789;SDS011;63318;52.406;13.416;2023-07-20T06:10:44;5.70;;;3.90;;
74789;SDS011;63318;52.406;13.416;2023-07-20T06:13:15;6.10;;;4.50;;
74789;SDS011;63318;52.406;13.416;2023-07-20T06:15:44;9.90;;;6.00;;
74789;SDS011;63318;52.406;13.416;2023-07-20T06:18:12;7.90;;;5.00;;
74789;SDS011;63318;52.406;13.416;2023-07-20T06:20:40;8.10;;;5.00;;
74789;SDS011;63318;52.406;13.416;2023-07-20T06:23:09;7.50;;;5.30;;
74789;SDS011;63318;52.406;13.416;2023-07-20T06:25:37;8.60;;;5.70;;
74789;SDS011;63318;52.406;13.416;2023-07-20T06:28:06;13.80;;;6.10;;
74789;SDS011;63318;52.406;13.416;2023-07-20T06:30:35;8.00;;;5.20;;
74789;SDS011;63318;52.406;13.416;2023-07-20T06:33:03;8.90;;;5.50;;
74789;SDS011;63318;52.406;13.416;2023-07-20T06:35:31;8.50;;;5.80;;
74789;SDS011;63318;52.406;13.416;2023-07-20T06:38:00;11.00;;;5.90;;
74789;SDS011;63318;52.406;13.416;2023-07-20T06:40:28;7.50;;;5.20;;
74789;SDS011;63318;52.406;13.416;2023-07-20T06:42:56;7.60;;;5.40;;
74789;SDS011;63318;52.406;13.416;2023-07-20T06:45:25;8.70;;;4.90;;
74789;SDS011;63318;52.406;13.416;2023-07-20T06:47:53;6.10;;;4.60;;
74789;SDS011;63318;52.406;13.416;2023-07-20T06:50:21;10.40;;;5.50;;
74789;SDS011;63318;52.406;13.416;2023-07-20T06:52:50;8.50;;;5.20;;
74789;SDS011;63318;52.406;13.416;2023-07-20T06:55:18;6.30;;;4.40;;
74789;SDS011;63318;52.406;13.416;2023-07-20T06:57:46;7.50;;;4.30;;
74789;SDS011;63318;52.406;13.416;2023-07-20T07:00:15;5.90;;;3.60;;
74789;SDS011;63318;52.406;13.416;2023-07-20T07:02:43;6.40;;;3.80;;
74789;SDS011;63318;52.406;13.416;2023-07-20T07:05:12;6.30;;;3.30;;
74789;SDS011;63318;52.406;13.416;2023-07-20T07:07:40;4.90;;;3.40;;
74789;SDS011;63318;52.406;13.416;2023-07-20T07:10:09;5.30;;;3.20;;
74789;SDS011;63318;52.406;13.416;2023-07-20T07:12:37;5.00;;;2.80;;
74789;SDS011;63318;52.406;13.416;2023-07-20T07:15:06;6.60;;;2.60;;
74789;SDS011;63318;52.406;13.416;2023-07-20T07:17:38;5.10;;;2.00;;
74789;SDS011;63318;52.406;13.416;2023-07-20T07:20:07;4.30;;;1.90;;
74789;SDS011;63318;52.406;13.416;2023-07-20T07:22:36;4.80;;;2.20;;
74789;SDS011;63318;52.406;13.416;2023-07-20T07:25:06;3.40;;;1.50;;
74789;SDS011;63318;52.406;13.416;2023-07-20T07:27:35;3.20;;;1.50;;
74789;SDS011;63318;52.406;13.416;2023-07-20T07:30:04;3.80;;;1.50;;
74789;SDS011;63318;52.406;13.416;2023-07-20T07:32:33;4.00;;;1.80;;
74789;SDS011;63318;52.406;13.416;2023-07-20T07:35:02;3.90;;;1.50;;
74789;SDS011;63318;52.406;13.416;2023-07-20T07:37:31;3.90;;;1.50;;
74789;SDS011;63318;52.406;13.416;2023-07-20T07:39:59;2.90;;;1.30;;
74789;SDS011;63318;52.406;13.416;2023-07-20T07:42:28;3.30;;;1.40;;
74789;SDS011;63318;52.406;13.416;2023-07-20T07:44:57;4.40;;;1.10;;
74789;SDS011;63318;52.406;13.416;2023-07-20T07:47:25;5.10;;;1.00;;
74789;SDS011;63318;52.406;13.416;2023-07-20T07:49:53;3.00;;;1.20;;
74789;SDS011;63318;52.406;13.416;2023-07-20T07:52:22;4.50;;;1.10;;
74789;SDS011;63318;52.406;13.416;2023-07-20T07:54:50;3.70;;;1.10;;
74789;SDS011;63318;52.406;13.416;2023-07-20T07:57:18;3.00;;;1.10;;
74789;SDS011;63318;52.406;13.416;2023-07-20T07:59:46;1.40;;;0.70;;
74789;SDS011;63318;52.406;13.416;2023-07-20T08:02:15;2.30;;;0.90;;
74789;SDS011;63318;52.406;13.416;2023-07-20T08:04:43;3.40;;;1.10;;
74789;SDS011;63318;52.406;13.416;2023-07-20T08:07:12;2.60;;;1.00;;
74789;SDS011;63318;52.406;13.416;2023-07-20T08:09:40;3.50;;;1.20;;
74789;SDS011;63318;52.406;13.416;2023-07-20T08:12:09;2.30;;;0.90;;
74789;SDS011;63318;52.406;13.416;2023-07-20T08:14:37;1.60;;;0.80;;
74789;SDS011;63318;52.406;13.416;2023-07-20T08:17:05;3.00;;;1.00;;
74789;SDS011;63318;52.406;13.416;2023-07-20T08:19:35;2.40;;;0.70;;
74789;SDS011;63318;52.406;13.416;2023-07-20T08:22:06;3.50;;;0.90;;
74789;SDS011;63318;52.406;13.416;2023-07-20T08:24:38;3.40;;;1.10;;
74789;SDS011;63318;52.406;13.416;2023-07-20T08:27:08;2.40;;;0.90;;
74789;SDS011;63318;52.406;13.416;2023-07-20T08:29:36;3.70;;;1.00;;
74789;SDS011;63318;52.406;13.416;2023-07-20T08:32:06;1.80;;;0.70;;
74789;SDS011;63318;52.406;13.416;2023-07-20T08:34:34;2.80;;;0.80;;
74789;SDS011;63318;52.406;13.416;2023-07-20T08:37:03;2.30;;;0.90;;
74789;SDS011;63318;52.406;13.416;2023-07-20T08:39:32;2.80;;;0.90;;
74789;SDS011;63318;52.406;13.416;2023-07-20T08:42:01;2.70;;;0.80;;
74789;SDS011;63318;52.406;13.416;2023-07-20T08:44:31;2.30;;;0.70;;
74789;SDS011;63318;52.406;13.416;2023-07-20T08:47:02;1.80;;;0.70;;
74789;SDS011;63318;52.406;13.416;2023-07-20T08:49:32;3.00;;;0.80;;
74789;SDS011;63318;52.406;13.416;2023-07-20T08:52:02;3.60;;;0.60;;
74789;SDS011;63318;52.406;13.416;2023-07-20T08:54:32;2.30;;;0.80;;
74789;SDS011;63318;52.406;13.416;2023-07-20T08:57:02;2.10;;;0.70;;
74789;SDS011;63318;52.406;13.416;2023-07-20T08:59:32;2.20;;;0.80;;
74789;SDS011;63318;52.406;13.416;2023-07-20T09:02:06;1.60;;;0.70;;
74789;SDS011;63318;52.406;13.416;2023-07-20T09:04:39;4.50;;;0.90;;
74789;SDS011;63318;52.406;13.416;2023-07-20T09:07:08;1.40;;;0.70;;
74789;SDS011;63318;52.406;13.416;2023-07-20T09:09:40;3.10;;;0.70;;
74789;SDS011;63318;52.406;13.416;2023-07-20T09:12:14;2.50;;;0.90;;
74789;SDS011;63318;52.406;13.416;2023-07-20T09:14:44;1.70;;;0.70;;
74789;SDS011;63318;52.406;13.416;2023-07-20T09:17:16;3.30;;;0.70;;
74789;SDS011;63318;52.406;13.416;2023-07-20T09:19:55;2.60;;;0.80;;
74789;SDS011;63318;52.406;13.416;2023-07-20T09:22:30;1.80;;;0.60;;
74789;SDS011;63318;52.406;13.416;2023-07-20T09:24:59;1.70;;;0.60;;
74789;SDS011;63318;52.406;13.416;2023-07-20T09:27:30;2.00;;;0.80;;
74789;SDS011;63318;52.406;13.416;2023-07-20T09:30:03;4.20;;;0.80;;
74789;SDS011;63318;52.406;13.416;2023-07-20T09:32:35;3.10;;;0.70;;
74789;SDS011;63318;52.406;13.416;2023-07-20T09:35:10;1.40;;;0.70;;
74789;SDS011;63318;52.406;13.416;2023-07-20T09:37:41;1.60;;;0.60;;
74789;SDS011;63318;52.406;13.416;2023-07-20T09:40:17;2.30;;;0.60;;
74789;SDS011;63318;52.406;13.416;2023-07-20T09:42:47;2.20;;;0.80;;
74789;SDS011;63318;52.406;13.416;2023-07-20T09:45:19;1.70;;;0.60;;
74789;SDS011;63318;52.406;13.416;2023-07-20T09:47:48;1.50;;;0.60;;
74789;SDS011;63318;52.406;13.416;2023-07-20T09:50:16;1.50;;;0.60;;
74789;SDS011;63318;52.406;13.416;2023-07-20T09:52:45;1.80;;;0.70;;
74789;SDS011;63318;52.406;13.416;2023-07-20T09:55:15;1.80;;;0.70;;
74789;SDS011;63318;52.406;13.416;2023-07-20T09:57:45;2.00;;;0.90;;
74789;SDS011;63318;52.406;13.416;2023-07-20T10:00:15;3.20;;;0.80;;
74789;SDS011;63318;52.406;13.416;2023-07-20T10:02:45;2.10;;;0.70;;
74789;SDS011;63318;52.406;13.416;2023-07-20T10:05:16;1.70;;;0.60;;
74789;SDS011;63318;52.406;13.416;2023-07-20T10:07:47;1.80;;;0.80;;
74789;SDS011;63318;52.406;13.416;2023-07-20T10:10:16;1.80;;;0.60;;
74789;SDS011;63318;52.406;13.416;2023-07-20T10:12:47;2.00;;;0.70;;
74789;SDS011;63318;52.406;13.416;2023-07-20T10:15:18;2.00;;;0.60;;
74789;SDS011;63318;52.406;13.416;2023-07-20T10:17:56;1.80;;;0.90;;
74789;SDS011;63318;52.406;13.416;2023-07-20T10:20:29;1.50;;;0.70;;
74789;SDS011;63318;52.406;13.416;2023-07-20T10:22:58;3.00;;;0.70;;
74789;SDS011;63318;52.406;13.416;2023-07-20T10:25:28;2.40;;;0.80;;
74789;SDS011;63318;52.406;13.416;2023-07-20T10:27:57;2.60;;;0.90;;
74789;SDS011;63318;52.406;13.416;2023-07-20T10:30:27;3.10;;;0.70;;
74789;SDS011;63318;52.406;13.416;2023-07-20T10:32:55;2.70;;;0.90;;
74789;SDS011;63318;52.406;13.416;2023-07-20T10:35:24;2.00;;;0.90;;
74789;SDS011;63318;52.406;13.416;2023-07-20T10:37:53;3.00;;;0.70;;
74789;SDS011;63318;52.406;13.416;2023-07-20T10:40:32;3.70;;;1.00;;
74789;SDS011;63318;52.406;13.416;2023-07-20T10:43:05;2.30;;;0.80;;
74789;SDS011;63318;52.406;13.416;2023-07-20T10:45:39;2.50;;;0.80;;
74789;SDS011;63318;52.406;13.416;2023-07-20T10:48:14;2.20;;;0.90;;
74789;SDS011;63318;52.406;13.416;2023-07-20T10:50:43;3.30;;;0.70;;
74789;SDS011;63318;52.406;13.416;2023-07-20T10:53:13;2.40;;;0.70;;
74789;SDS011;63318;52.406;13.416;2023-07-20T10:55:42;2.80;;;0.70;;
74789;SDS011;63318;52.406;13.416;2023-07-20T10:58:11;2.00;;;0.70;;
74789;SDS011;63318;52.406;13.416;2023-07-20T11:00:54;3.00;;;0.70;;
74789;SDS011;63318;52.406;13.416;2023-07-20T11:03:27;1.80;;;0.70;;
74789;SDS011;63318;52.406;13.416;2023-07-20T11:05:58;1.70;;;0.70;;
74789;SDS011;63318;52.406;13.416;2023-07-20T11:08:47;3.50;;;0.90;;
74789;SDS011;63318;52.406;13.416;2023-07-20T11:11:25;2.20;;;0.70;;
74789;SDS011;63318;52.406;13.416;2023-07-20T11:13:55;1.60;;;0.60;;
74789;SDS011;63318;52.406;13.416;2023-07-20T11:16:40;2.70;;;0.70;;
74789;SDS011;63318;52.406;13.416;2023-07-20T11:19:17;1.90;;;0.60;;
74789;SDS011;63318;52.406;13.416;2023-07-20T11:21:49;3.10;;;0.70;;
74789;SDS011;63318;52.406;13.416;2023-07-20T11:24:20;3.70;;;0.80;;
74789;SDS011;63318;52.406;13.416;2023-07-20T11:26:49;1.50;;;0.50;;
74789;SDS011;63318;52.406;13.416;2023-07-20T11:29:19;0.60;;;0.30;;
74789;SDS011;63318;52.406;13.416;2023-07-20T11:31:48;1.50;;;0.60;;
74789;SDS011;63318;52.406;13.416;2023-07-20T11:34:18;4.20;;;0.70;;
74789;SDS011;63318;52.406;13.416;2023-07-20T11:36:47;5.60;;;0.70;;
74789;SDS011;63318;52.406;13.416;2023-07-20T11:39:18;4.10;;;1.00;;
74789;SDS011;63318;52.406;13.416;2023-07-20T11:41:48;3.80;;;1.20;;
74789;SDS011;63318;52.406;13.416;2023-07-20T11:44:18;1.30;;;0.60;;
74789;SDS011;63318;52.406;13.416;2023-07-20T11:46:48;1.90;;;0.60;;
74789;SDS011;63318;52.406;13.416;2023-07-20T11:49:16;1.70;;;0.70;;
74789;SDS011;63318;52.406;13.416;2023-07-20T11:51:44;2.40;;;0.70;;
74789;SDS011;63318;52.406;13.416;2023-07-20T11:54:13;3.80;;;0.70;;
74789;SDS011;63318;52.406;13.416;2023-07-20T11:56:42;2.00;;;0.60;;
74789;SDS011;63318;52.406;13.416;2023-07-20T11:59:11;2.40;;;0.70;;
74789;SDS011;63318;52.406;13.416;2023-07-20T12:01:39;2.60;;;0.70;;
74789;SDS011;63318;52.406;13.416;2023-07-20T12:04:07;3.70;;;0.70;;
74789;SDS011;63318;52.406;13.416;2023-07-20T12:06:36;1.60;;;0.60;;
74789;SDS011;63318;52.406;13.416;2023-07-20T12:09:04;1.40;;;0.50;;
74789;SDS011;63318;52.406;13.416;2023-07-20T12:11:40;1.30;;;0.70;;
74789;SDS011;63318;52.406;13.416;2023-07-20T12:14:09;2.00;;;0.70;;
74789;SDS011;63318;52.406;13.416;2023-07-20T12:16:38;1.40;;;0.50;;
74789;SDS011;63318;52.406;13.416;2023-07-20T12:19:07;2.90;;;0.80;;
74789;SDS011;63318;52.406;13.416;2023-07-20T12:21:37;4.30;;;0.70;;
74789;SDS011;63318;52.406;13.416;2023-07-20T12:24:07;3.60;;;0.80;;
74789;SDS011;63318;52.406;13.416;2023-07-20T12:26:38;1.30;;;0.50;;
74789;SDS011;63318;52.406;13.416;2023-07-20T12:29:07;1.70;;;0.70;;
74789;SDS011;63318;52.406;13.416;2023-07-20T12:31:36;0.80;;;0.40;;
74789;SDS011;63318;52.406;13.416;2023-07-20T12:34:04;2.10;;;0.80;;
74789;SDS011;63318;52.406;13.416;2023-07-20T12:36:32;1.40;;;0.50;;
74789;SDS011;63318;52.406;13.416;2023-07-20T12:39:01;2.40;;;0.80;;
74789;SDS011;63318;52.406;13.416;2023-07-20T12:41:29;1.70;;;0.50;;
74789;SDS011;63318;52.406;13.416;2023-07-20T12:43:57;1.50;;;0.60;;
74789;SDS011;63318;52.406;13.416;2023-07-20T12:46:25;3.40;;;0.70;;
74789;SDS011;63318;52.406;13.416;2023-07-20T12:48:53;2.20;;;0.70;;
74789;SDS011;63318;52.406;13.416;2023-07-20T12:51:22;2.70;;;0.60;;
74789;SDS011;63318;52.406;13.416;2023-07-20T12:53:50;2.80;;;0.70;;
74789;SDS011;63318;52.406;13.416;2023-07-20T12:56:19;1.30;;;0.50;;
74789;SDS011;63318;52.406;13.416;2023-07-20T12:58:47;1.70;;;0.60;;
74789;SDS011;63318;52.406;13.416;2023-07-20T13:01:15;2.60;;;0.70;;
74789;SDS011;63318;52.406;13.416;2023-07-20T13:03:44;1.70;;;0.60;;
74789;SDS011;63318;52.406;13.416;2023-07-20T13:06:12;1.90;;;0.60;;
74789;SDS011;63318;52.406;13.416;2023-07-20T13:08:40;1.30;;;0.40;;
74789;SDS011;63318;52.406;13.416;2023-07-20T13:11:08;2.30;;;0.50;;
74789;SDS011;63318;52.406;13.416;2023-07-20T13:13:37;1.50;;;0.40;;
74789;SDS011;63318;52.406;13.416;2023-07-20T13:16:05;3.90;;;0.80;;
74789;SDS011;63318;52.406;13.416;2023-07-20T13:18:34;0.90;;;0.40;;
74789;SDS011;63318;52.406;13.416;2023-07-20T13:21:02;1.50;;;0.40;;
74789;SDS011;63318;52.406;13.416;2023-07-20T13:23:30;1.00;;;0.40;;
74789;SDS011;63318;52.406;13.416;2023-07-20T13:25:59;1.80;;;0.50;;
74789;SDS011;63318;52.406;13.416;2023-07-20T13:28:27;1.10;;;0.50;;
74789;SDS011;63318;52.406;13.416;2023-07-20T13:30:55;2.40;;;0.40;;
74789;SDS011;63318;52.406;13.416;2023-07-20T13:33:23;1.20;;;0.40;;
74789;SDS011;63318;52.406;13.416;2023-07-20T13:35:52;3.30;;;0.70;;
74789;SDS011;63318;52.406;13.416;2023-07-20T13:38:20;2.00;;;0.40;;
74789;SDS011;63318;52.406;13.416;2023-07-20T13:40:49;3.50;;;0.60;;
74789;SDS011;63318;52.406;13.416;2023-07-20T13:43:18;2.20;;;0.60;;
74789;SDS011;63318;52.406;13.416;2023-07-20T13:45:46;2.50;;;0.80;;
74789;SDS011;63318;52.406;13.416;2023-07-20T13:48:14;1.20;;;0.40;;
74789;SDS011;63318;52.406;13.416;2023-07-20T13:50:43;2.00;;;0.50;;
74789;SDS011;63318;52.406;13.416;2023-07-20T13:53:12;1.60;;;0.50;;
74789;SDS011;63318;52.406;13.416;2023-07-20T13:55:40;1.50;;;0.70;;
74789;SDS011;63318;52.406;13.416;2023-07-20T13:58:09;1.40;;;0.50;;
74789;SDS011;63318;52.406;13.416;2023-07-20T14:00:37;3.30;;;0.70;;
74789;SDS011;63318;52.406;13.416;2023-07-20T14:03:05;3.80;;;0.70;;
74789;SDS011;63318;52.406;13.416;2023-07-20T14:05:34;2.40;;;0.60;;
74789;SDS011;63318;52.406;13.416;2023-07-20T14:08:02;1.40;;;0.60;;
74789;SDS011;63318;52.406;13.416;2023-07-20T14:10:31;1.60;;;0.70;;
74789;SDS011;63318;52.406;13.416;2023-07-20T14:12:59;1.00;;;0.50;;
74789;SDS011;63318;52.406;13.416;2023-07-20T14:15:30;1.90;;;0.70;;
74789;SDS011;63318;52.406;13.416;2023-07-20T14:17:58;1.10;;;0.40;;
74789;SDS011;63318;52.406;13.416;2023-07-20T14:20:27;2.00;;;0.70;;
74789;SDS011;63318;52.406;13.416;2023-07-20T14:22:55;1.70;;;0.60;;
74789;SDS011;63318;52.406;13.416;2023-07-20T14:25:23;1.60;;;0.60;;
74789;SDS011;63318;52.406;13.416;2023-07-20T14:27:52;1.80;;;0.60;;
74789;SDS011;63318;52.406;13.416;2023-07-20T14:30:20;1.10;;;0.50;;
74789;SDS011;63318;52.406;13.416;2023-07-20T14:32:48;3.50;;;0.80;;
74789;SDS011;63318;52.406;13.416;2023-07-20T14:35:17;1.40;;;0.60;;
74789;SDS011;63318;52.406;13.416;2023-07-20T14:37:45;2.20;;;0.70;;
74789;SDS011;63318;52.406;13.416;2023-07-20T14:40:14;2.00;;;0.60;;
74789;SDS011;63318;52.406;13.416;2023-07-20T14:42:42;2.40;;;0.70;;
74789;SDS011;63318;52.406;13.416;2023-07-20T14:45:10;1.10;;;0.60;;
74789;SDS011;63318;52.406;13.416;2023-07-20T14:47:39;2.10;;;0.60;;